Time;durP1;ratioP1;P1;durP2;ratioP2;P2;SDS_P1;SDS_P2;PMS_P1;PMS_P2;Temp;Humidity;BMP_temperature;BMP_pressure;BME280_temperature;BME280_humidity;BME280_pressure;Samples;Min_cycle;Max_cycle;Signal;HPM_P1;HPM_P2
2021/10/30 00:01:49;;;;;;;1.50;1.00;;;13.50;98.20;;;;;;5068143;28;20976;-72
2021/10/30 00:04:16;;;;;;;1.50;1.00;;;13.50;98.20;;;;;;5055805;28;20470;-72
2021/10/30 00:06:43;;;;;;;1.57;1.10;;;13.40;98.20;;;;;;5048859;28;20512;-73
2021/10/30 00:09:11;;;;;;;1.50;1.10;;;13.40;98.20;;;;;;5049484;28;20652;-72
2021/10/30 00:11:38;;;;;;;1.50;1.07;;;13.40;98.20;;;;;;5067669;28;20469;-73
2021/10/30 00:14:05;;;;;;;1.50;1.00;;;13.40;98.20;;;;;;5064154;28;20466;-72
2021/10/30 00:16:32;;;;;;;1.53;1.00;;;13.40;98.20;;;;;;5056598;28;20502;-72
2021/10/30 00:18:59;;;;;;;1.60;1.00;;;13.40;98.20;;;;;;5061357;28;20461;-72
2021/10/30 00:21:26;;;;;;;1.53;1.00;;;13.30;98.20;;;;;;5071708;28;20460;-72
2021/10/30 00:23:52;;;;;;;1.53;1.00;;;13.30;98.20;;;;;;5066354;28;20955;-70
2021/10/30 00:26:21;;;;;;;1.50;1.00;;;13.30;98.20;;;;;;5069518;28;20480;-71
2021/10/30 00:28:48;;;;;;;1.50;1.07;;;13.30;98.20;;;;;;5051168;28;20488;-72
2021/10/30 00:31:15;;;;;;;1.57;1.00;;;13.30;98.20;;;;;;5049183;28;20466;-72
2021/10/30 00:33:42;;;;;;;1.50;1.00;;;13.30;98.20;;;;;;5067969;28;20461;-73
2021/10/30 00:36:09;;;;;;;1.50;1.10;;;13.20;98.20;;;;;;5068413;28;20488;-73
2021/10/30 00:38:37;;;;;;;1.60;1.20;;;13.20;98.20;;;;;;5068095;28;20987;-73
2021/10/30 00:41:05;;;;;;;1.50;1.10;;;13.20;98.20;;;;;;5064508;28;20550;-73
2021/10/30 00:43:34;;;;;;;1.50;1.00;;;13.20;98.20;;;;;;5065258;28;20983;-73
2021/10/30 00:46:01;;;;;;;1.50;1.00;;;13.20;98.20;;;;;;5064431;28;20486;-71
2021/10/30 00:48:28;;;;;;;1.60;1.10;;;13.20;98.20;;;;;;5074700;28;20465;-73
2021/10/30 00:50:56;;;;;;;1.57;1.10;;;13.20;98.20;;;;;;5062597;28;20488;-73
2021/10/30 00:53:30;;;;;;;2.00;1.60;;;13.20;98.20;;;;;;5067674;28;20469;-71
2021/10/30 00:55:59;;;;;;;1.50;1.00;;;13.20;98.20;;;;;;5054520;28;20509;-73
2021/10/30 00:58:27;;;;;;;1.60;1.10;;;13.20;98.20;;;;;;5052587;28;20458;-72
2021/10/30 01:00:55;;;;;;;1.53;1.10;;;13.10;98.20;;;;;;5052503;28;20469;-72
2021/10/30 01:03:22;;;;;;;1.50;1.03;;;13.10;98.20;;;;;;5053689;28;20462;-71
2021/10/30 01:05:49;;;;;;;1.50;1.07;;;13.10;98.20;;;;;;5052546;28;20564;-72
2021/10/30 01:08:16;;;;;;;1.53;1.10;;;13.10;98.20;;;;;;5052073;28;20596;-71
2021/10/30 01:10:43;;;;;;;1.57;1.10;;;13.10;98.20;;;;;;5052664;28;20473;-71
2021/10/30 01:13:09;;;;;;;1.57;1.10;;;13.10;98.20;;;;;;5065992;28;20466;-71
2021/10/30 01:15:36;;;;;;;1.57;1.10;;;13.10;98.20;;;;;;5059448;28;20478;-70
2021/10/30 01:18:05;;;;;;;1.53;1.00;;;13.10;98.20;;;;;;5052422;28;20549;-71
2021/10/30 01:20:34;;;;;;;1.70;1.53;;;13.10;98.20;;;;;;5052370;28;20481;-71
2021/10/30 01:23:02;;;;;;;1.57;1.10;;;13.10;98.20;;;;;;5064779;28;20505;-72
2021/10/30 01:25:29;;;;;;;1.53;1.10;;;13.10;98.20;;;;;;5064239;28;20647;-71
2021/10/30 01:27:58;;;;;;;1.57;1.10;;;13.10;98.20;;;;;;5062805;28;20462;-72
2021/10/30 01:30:26;;;;;;;1.53;1.10;;;13.10;98.20;;;;;;5077135;28;21250;-73
2021/10/30 01:32:55;;;;;;;1.60;1.20;;;13.10;98.20;;;;;;5061123;28;20454;-72
2021/10/30 01:35:28;;;;;;;1.50;1.00;;;13.10;98.20;;;;;;5051227;28;20573;-73
2021/10/30 01:37:57;;;;;;;1.50;1.00;;;13.10;98.20;;;;;;5052072;28;20465;-73
2021/10/30 01:40:24;;;;;;;1.50;1.00;;;13.10;98.20;;;;;;5058709;28;20468;-72
2021/10/30 01:42:56;;;;;;;1.60;1.10;;;13.10;98.20;;;;;;5066468;28;20462;-71
2021/10/30 01:45:23;;;;;;;1.50;1.00;;;13.10;98.20;;;;;;5064570;28;20564;-72
2021/10/30 01:47:50;;;;;;;1.53;1.10;;;13.10;98.20;;;;;;5070820;28;20571;-72
2021/10/30 01:50:17;;;;;;;1.57;1.10;;;13.10;98.20;;;;;;5071874;28;20458;-72
2021/10/30 01:52:45;;;;;;;1.53;1.10;;;13.10;98.20;;;;;;5058097;28;20837;-71
2021/10/30 01:55:15;;;;;;;1.60;1.10;;;13.00;98.20;;;;;;5060981;28;20486;-72
2021/10/30 01:57:43;;;;;;;1.60;1.10;;;13.00;98.20;;;;;;5067714;28;20476;-73
2021/10/30 02:00:11;;;;;;;1.50;1.00;;;13.00;98.20;;;;;;5070995;28;20452;-72
2021/10/30 02:02:38;;;;;;;1.50;1.10;;;13.00;98.20;;;;;;5076325;28;20514;-72
2021/10/30 02:05:05;;;;;;;1.60;1.20;;;12.90;98.20;;;;;;5051215;28;21043;-71
2021/10/30 02:07:32;;;;;;;1.53;1.10;;;12.90;98.20;;;;;;5049961;28;20492;-72
2021/10/30 02:09:59;;;;;;;1.60;1.10;;;12.90;98.20;;;;;;5063348;28;20460;-72
2021/10/30 02:12:27;;;;;;;1.50;1.10;;;12.90;98.20;;;;;;5069124;28;20540;-72
2021/10/30 02:14:54;;;;;;;1.53;1.00;;;12.80;98.20;;;;;;5069058;28;20488;-73
2021/10/30 02:17:21;;;;;;;1.50;1.00;;;12.80;98.20;;;;;;5072292;28;20458;-73
2021/10/30 02:19:48;;;;;;;1.50;1.10;;;12.80;98.20;;;;;;5072680;28;20552;-73
2021/10/30 02:22:15;;;;;;;1.50;1.07;;;12.80;98.20;;;;;;5055533;28;20545;-73
2021/10/30 02:24:42;;;;;;;1.53;1.10;;;12.80;98.20;;;;;;5079348;28;20564;-73
2021/10/30 02:27:09;;;;;;;1.50;1.10;;;12.80;98.20;;;;;;5072470;28;20560;-73
2021/10/30 02:29:38;;;;;;;1.50;1.10;;;12.80;98.20;;;;;;5072031;28;20465;-73
2021/10/30 02:32:06;;;;;;;1.57;1.17;;;12.80;98.20;;;;;;5062633;28;20537;-73
2021/10/30 02:34:33;;;;;;;1.50;1.00;;;12.80;98.20;;;;;;5081622;28;20477;-73
2021/10/30 02:37:00;;;;;;;1.60;1.20;;;12.80;98.20;;;;;;5066063;28;20466;-73
2021/10/30 02:39:27;;;;;;;1.50;1.10;;;12.80;98.20;;;;;;5058809;28;20472;-73
2021/10/30 02:41:54;;;;;;;1.50;1.10;;;12.90;98.20;;;;;;5065777;28;20462;-73
2021/10/30 02:44:20;;;;;;;1.60;1.10;;;12.80;98.20;;;;;;5086670;28;20461;-73
2021/10/30 02:46:49;;;;;;;1.60;1.20;;;12.80;98.20;;;;;;5060752;28;21059;-73
2021/10/30 02:49:17;;;;;;;1.57;1.13;;;12.80;98.20;;;;;;5076690;28;21003;-73
2021/10/30 02:51:44;;;;;;;1.57;1.13;;;12.80;98.20;;;;;;5079969;28;20481;-74
2021/10/30 02:54:11;;;;;;;1.50;1.00;;;12.80;98.20;;;;;;5069918;28;20654;-73
2021/10/30 02:56:37;;;;;;;1.50;1.00;;;12.80;98.20;;;;;;5077825;28;20955;-73
2021/10/30 02:59:04;;;;;;;1.50;1.10;;;12.90;98.20;;;;;;5077016;28;20815;-73
2021/10/30 03:01:31;;;;;;;1.50;1.00;;;12.90;98.20;;;;;;5073675;28;20459;-73
2021/10/30 03:03:59;;;;;;;1.53;1.10;;;12.90;98.20;;;;;;5073029;28;20465;-73
2021/10/30 03:06:26;;;;;;;1.50;1.03;;;12.90;98.20;;;;;;5072536;28;20576;-73
2021/10/30 03:08:54;;;;;;;1.50;1.00;;;12.90;98.20;;;;;;5065975;28;20556;-73
2021/10/30 03:11:21;;;;;;;1.57;1.10;;;12.90;98.20;;;;;;5066241;28;20936;-73
2021/10/30 03:13:48;;;;;;;1.57;1.10;;;12.90;98.20;;;;;;5078130;28;20940;-73
2021/10/30 03:16:14;;;;;;;1.50;1.00;;;12.90;98.20;;;;;;5071677;28;20484;-74
2021/10/30 03:18:41;;;;;;;1.53;1.00;;;12.90;98.20;;;;;;5070807;28;20994;-73
2021/10/30 03:21:10;;;;;;;1.53;1.00;;;12.90;98.20;;;;;;5061011;28;20473;-74
2021/10/30 03:23:37;;;;;;;1.70;1.27;;;13.00;98.20;;;;;;5078230;28;20986;-72
2021/10/30 03:26:04;;;;;;;1.57;1.10;;;13.00;98.20;;;;;;5068027;28;20478;-72
2021/10/30 03:28:31;;;;;;;1.53;1.10;;;13.00;98.20;;;;;;5080832;28;20467;-71
2021/10/30 03:30:58;;;;;;;1.53;1.00;;;13.00;98.20;;;;;;5052732;28;20462;-72
2021/10/30 03:33:26;;;;;;;1.53;1.10;;;13.00;98.20;;;;;;5073662;28;20552;-69
2021/10/30 03:35:53;;;;;;;1.50;1.00;;;13.00;98.20;;;;;;5071194;28;20560;-70
2021/10/30 03:38:21;;;;;;;1.53;1.07;;;13.00;98.20;;;;;;5050603;28;20454;-70
2021/10/30 03:40:48;;;;;;;1.50;1.07;;;13.00;98.20;;;;;;5049836;28;20466;-70
2021/10/30 03:43:15;;;;;;;1.50;1.00;;;12.90;98.20;;;;;;5062792;28;20465;-70
2021/10/30 03:45:42;;;;;;;1.60;1.20;;;12.90;98.20;;;;;;5064604;28;20884;-72
2021/10/30 03:48:09;;;;;;;1.60;1.10;;;12.90;98.20;;;;;;5049442;28;20490;-72
2021/10/30 03:50:37;;;;;;;1.57;1.10;;;12.80;98.20;;;;;;5048397;28;20490;-72
2021/10/30 03:53:04;;;;;;;1.50;1.00;;;12.80;98.20;;;;;;5061668;28;20470;-73
2021/10/30 03:55:33;;;;;;;1.50;1.10;;;12.70;98.20;;;;;;5069662;28;20634;-73
2021/10/30 03:58:00;;;;;;;2.33;2.13;;;12.70;98.20;;;;;;5061013;28;20462;-73
2021/10/30 04:00:27;;;;;;;1.50;1.00;;;12.60;98.20;;;;;;5050313;28;20473;-74
2021/10/30 04:02:55;;;;;;;1.57;1.10;;;12.60;98.20;;;;;;5062148;28;20560;-73
2021/10/30 04:05:22;;;;;;;1.50;1.03;;;12.50;98.20;;;;;;5066838;28;20494;-73
2021/10/30 04:07:48;;;;;;;1.53;1.10;;;12.50;98.20;;;;;;5062406;28;20492;-74
2021/10/30 04:10:15;;;;;;;1.57;1.10;;;12.50;98.20;;;;;;5071604;28;20489;-74
2021/10/30 04:12:44;;;;;;;1.53;1.10;;;12.40;98.20;;;;;;5078177;28;20499;-73
2021/10/30 04:15:11;;;;;;;1.53;1.10;;;12.40;98.20;;;;;;5082524;28;21033;-74
2021/10/30 04:17:38;;;;;;;1.50;1.10;;;12.30;98.20;;;;;;5068615;28;20462;-74
2021/10/30 04:20:06;;;;;;;1.53;1.00;;;12.30;98.20;;;;;;5063255;28;20549;-74
2021/10/30 04:22:33;;;;;;;1.53;1.00;;;12.30;98.20;;;;;;5072398;28;20877;-74
2021/10/30 04:25:00;;;;;;;1.50;1.00;;;12.20;98.20;;;;;;5074252;28;20849;-74
2021/10/30 04:27:27;;;;;;;1.50;1.10;;;12.20;98.20;;;;;;5063382;28;20481;-73
2021/10/30 04:29:55;;;;;;;1.50;1.00;;;12.20;98.20;;;;;;5071512;28;20824;-74
2021/10/30 04:32:22;;;;;;;1.53;1.10;;;12.20;98.20;;;;;;5074087;28;20523;-74
2021/10/30 04:34:51;;;;;;;1.90;1.57;;;12.10;98.20;;;;;;5057163;28;20529;-74
2021/10/30 04:37:18;;;;;;;1.50;1.00;;;12.10;98.20;;;;;;5054587;28;20454;-74
2021/10/30 04:39:47;;;;;;;1.57;1.10;;;12.10;98.20;;;;;;5054632;28;20829;-74
2021/10/30 04:42:15;;;;;;;1.57;1.10;;;12.00;98.20;;;;;;5065569;28;20549;-73
2021/10/30 04:44:43;;;;;;;1.57;1.00;;;12.00;98.20;;;;;;5088404;28;20477;-74
2021/10/30 04:47:11;;;;;;;1.83;1.63;;;12.00;98.20;;;;;;5096022;28;20480;-74
2021/10/30 04:49:39;;;;;;;1.60;1.20;;;12.00;98.20;;;;;;5091505;28;20459;-74
2021/10/30 04:52:08;;;;;;;1.60;1.30;;;11.90;98.20;;;;;;5082566;28;20480;-74
2021/10/30 04:54:35;;;;;;;1.50;1.10;;;11.90;98.20;;;;;;5075404;28;20484;-74
2021/10/30 04:57:02;;;;;;;1.53;1.10;;;11.80;98.20;;;;;;5073600;28;20548;-74
2021/10/30 04:59:28;;;;;;;2.77;1.87;;;11.80;98.20;;;;;;5060269;28;20572;-73
2021/10/30 05:01:55;;;;;;;1.60;1.00;;;11.80;98.20;;;;;;5080013;28;20757;-74
2021/10/30 05:04:24;;;;;;;1.60;1.27;;;11.80;98.20;;;;;;5056625;28;20467;-74
2021/10/30 05:06:51;;;;;;;1.50;1.20;;;11.80;98.20;;;;;;5057606;28;20464;-73
2021/10/30 05:09:18;;;;;;;1.50;1.07;;;11.80;98.20;;;;;;5075783;28;20465;-74
2021/10/30 05:11:45;;;;;;;1.53;1.00;;;11.80;98.20;;;;;;5075266;28;20887;-73
2021/10/30 05:14:12;;;;;;;1.60;1.10;;;11.80;98.20;;;;;;5068695;28;20485;-73
2021/10/30 05:16:39;;;;;;;1.50;1.10;;;11.80;98.20;;;;;;5079895;28;20468;-73
2021/10/30 05:19:06;;;;;;;1.57;1.10;;;11.80;98.20;;;;;;5056217;28;20501;-73
2021/10/30 05:21:34;;;;;;;1.53;1.10;;;11.80;98.20;;;;;;5064090;28;20957;-73
2021/10/30 05:24:01;;;;;;;2.57;2.17;;;11.80;98.20;;;;;;5080453;28;20494;-73
2021/10/30 05:26:28;;;;;;;1.57;1.10;;;11.80;98.20;;;;;;5057328;28;20488;-74
2021/10/30 05:28:55;;;;;;;1.53;1.10;;;11.90;98.20;;;;;;5053882;28;20543;-73
2021/10/30 05:31:22;;;;;;;1.57;1.10;;;11.90;98.20;;;;;;5061533;28;20557;-74
2021/10/30 05:33:49;;;;;;;1.77;1.67;;;11.90;98.20;;;;;;5072512;28;20894;-72
2021/10/30 05:36:17;;;;;;;1.53;1.10;;;11.90;98.20;;;;;;5069015;28;20469;-73
2021/10/30 05:38:48;;;;;;;1.50;1.10;;;11.90;98.20;;;;;;5060929;28;20457;-73
2021/10/30 05:41:17;;;;;;;1.53;1.10;;;11.90;98.20;;;;;;5066006;28;20518;-73
2021/10/30 05:43:44;;;;;;;1.57;1.10;;;12.00;98.20;;;;;;5063475;28;20501;-73
2021/10/30 05:46:11;;;;;;;1.60;1.20;;;12.00;98.20;;;;;;5078233;28;20478;-72
2021/10/30 05:48:38;;;;;;;1.53;1.10;;;12.00;98.20;;;;;;5070876;28;20489;-72
2021/10/30 05:51:06;;;;;;;1.60;1.13;;;12.00;98.20;;;;;;5053363;28;21490;-73
2021/10/30 05:53:33;;;;;;;1.57;1.10;;;12.10;98.20;;;;;;5068461;28;20477;-73
2021/10/30 05:56:01;;;;;;;1.53;1.10;;;12.10;98.20;;;;;;5073321;28;20500;-71
2021/10/30 05:58:28;;;;;;;1.60;1.20;;;12.10;98.20;;;;;;5063895;28;20465;-72
2021/10/30 06:00:55;;;;;;;1.53;1.10;;;12.20;98.20;;;;;;5076242;28;20467;-72
2021/10/30 06:03:22;;;;;;;1.57;1.00;;;12.20;98.20;;;;;;5075452;28;20486;-71
2021/10/30 06:05:49;;;;;;;1.53;1.10;;;12.20;98.20;;;;;;5063667;28;20481;-72
2021/10/30 06:08:16;;;;;;;1.50;1.10;;;12.30;98.20;;;;;;5063813;28;20476;-72
2021/10/30 06:10:43;;;;;;;1.53;1.10;;;12.30;98.20;;;;;;5051558;28;20482;-73
2021/10/30 06:13:11;;;;;;;1.50;1.10;;;12.40;98.20;;;;;;5067703;28;20461;-71
2021/10/30 06:15:38;;;;;;;1.57;1.10;;;12.50;98.20;;;;;;5070657;28;20518;-73
2021/10/30 06:18:05;;;;;;;1.57;1.20;;;12.50;98.20;;;;;;5052255;28;20459;-72
2021/10/30 06:20:32;;;;;;;1.50;1.10;;;12.60;98.20;;;;;;5053654;28;20482;-72
2021/10/30 06:23:01;;;;;;;1.50;1.00;;;12.60;98.20;;;;;;5070697;28;20476;-72
2021/10/30 06:25:28;;;;;;;1.57;1.10;;;12.70;98.20;;;;;;5073604;28;20574;-72
2021/10/30 06:27:55;;;;;;;1.53;1.10;;;12.70;98.20;;;;;;5075906;28;21020;-72
2021/10/30 06:30:23;;;;;;;1.50;1.10;;;12.70;98.20;;;;;;5050170;28;20988;-72
2021/10/30 06:32:51;;;;;;;1.57;1.10;;;12.70;98.20;;;;;;5050237;28;20470;-72
2021/10/30 06:35:18;;;;;;;1.60;1.10;;;12.80;98.20;;;;;;5051738;28;20482;-74
2021/10/30 06:37:44;;;;;;;1.60;1.37;;;12.80;98.20;;;;;;5051159;28;20830;-73
2021/10/30 06:40:14;;;;;;;1.53;1.00;;;12.90;98.20;;;;;;5051039;28;20761;-73
2021/10/30 06:42:42;;;;;;;1.60;1.10;;;12.90;98.20;;;;;;5059521;28;20453;-72
2021/10/30 06:45:09;;;;;;;1.57;1.10;;;12.90;98.20;;;;;;5065404;28;20478;-74
2021/10/30 06:47:37;;;;;;;1.60;1.23;;;13.00;98.20;;;;;;5070041;28;20485;-74
2021/10/30 06:50:06;;;;;;;1.87;1.33;;;13.00;98.20;;;;;;5070480;28;20795;-73
2021/10/30 06:52:37;;;;;;;1.60;1.10;;;12.90;98.20;;;;;;5072820;28;20471;-73
2021/10/30 06:55:04;;;;;;;1.50;1.10;;;12.90;98.20;;;;;;5064882;28;20485;-72
2021/10/30 06:57:31;;;;;;;1.60;1.10;;;12.90;98.20;;;;;;5050932;28;20492;-73
2021/10/30 07:00:00;;;;;;;1.60;1.10;;;12.90;98.20;;;;;;5069843;28;20497;-74
2021/10/30 07:02:28;;;;;;;1.57;1.13;;;12.90;98.20;;;;;;5070740;28;20519;-73
2021/10/30 07:04:56;;;;;;;1.50;1.00;;;12.90;98.20;;;;;;5071715;28;20556;-73
2021/10/30 07:07:23;;;;;;;1.50;1.00;;;12.90;98.20;;;;;;5062509;28;20576;-73
2021/10/30 07:09:50;;;;;;;1.53;1.03;;;12.90;98.20;;;;;;5053233;28;20488;-74
2021/10/30 07:12:17;;;;;;;1.53;1.10;;;12.90;98.20;;;;;;5071966;28;20818;-73
2021/10/30 07:14:44;;;;;;;1.60;1.20;;;12.90;98.20;;;;;;5071704;28;20476;-72
2021/10/30 07:17:11;;;;;;;1.57;1.10;;;12.90;98.20;;;;;;5054883;28;20482;-73
2021/10/30 07:19:37;;;;;;;1.50;1.10;;;12.90;98.20;;;;;;5064779;28;20827;-72
2021/10/30 07:22:06;;;;;;;1.53;1.00;;;12.90;98.20;;;;;;5066976;28;20461;-74
2021/10/30 07:24:33;;;;;;;1.57;1.10;;;12.90;98.20;;;;;;5054025;28;20482;-74
2021/10/30 07:26:59;;;;;;;1.57;1.10;;;12.80;98.20;;;;;;5065762;28;20580;-73
2021/10/30 07:29:26;;;;;;;1.50;1.10;;;12.80;98.20;;;;;;5064118;28;20478;-73
2021/10/30 07:31:53;;;;;;;1.53;1.10;;;12.80;98.20;;;;;;5067151;28;20465;-73
2021/10/30 07:34:20;;;;;;;1.57;1.10;;;12.80;98.20;;;;;;5070551;28;20537;-73
2021/10/30 07:36:47;;;;;;;1.53;1.10;;;12.80;98.20;;;;;;5063618;28;20462;-72
2021/10/30 07:39:16;;;;;;;1.57;1.10;;;12.80;98.20;;;;;;5062074;28;20536;-73
2021/10/30 07:41:43;;;;;;;1.57;1.10;;;12.70;98.20;;;;;;5070427;28;20548;-73
2021/10/30 07:44:11;;;;;;;1.60;1.13;;;12.70;98.20;;;;;;5072795;28;20483;-72
2021/10/30 07:46:38;;;;;;;1.53;1.00;;;12.70;98.20;;;;;;5063593;28;20468;-73
2021/10/30 07:49:05;;;;;;;1.60;1.30;;;12.70;98.20;;;;;;5066836;28;20483;-72
2021/10/30 07:51:33;;;;;;;1.57;1.13;;;12.70;98.20;;;;;;5065101;28;20558;-73
2021/10/30 07:53:59;;;;;;;1.50;1.00;;;12.70;98.20;;;;;;5067269;28;20979;-72
2021/10/30 07:56:28;;;;;;;1.50;1.00;;;12.60;98.20;;;;;;5075480;28;20503;-73
2021/10/30 07:58:55;;;;;;;1.50;1.07;;;12.60;98.20;;;;;;5088612;28;20830;-73
2021/10/30 08:01:22;;;;;;;1.50;1.00;;;12.60;98.20;;;;;;5079994;28;20473;-73
2021/10/30 08:03:48;;;;;;;1.53;1.00;;;12.70;98.20;;;;;;5071298;28;20462;-75
2021/10/30 08:06:17;;;;;;;2.27;1.63;;;12.70;98.20;;;;;;5063316;28;20505;-74
2021/10/30 08:08:45;;;;;;;1.60;1.33;;;12.60;98.20;;;;;;5073239;28;20516;-73
2021/10/30 08:11:12;;;;;;;1.50;1.10;;;12.60;98.20;;;;;;5063488;28;20469;-74
2021/10/30 08:13:42;;;;;;;1.50;1.00;;;12.60;98.20;;;;;;5065721;28;20558;-73
2021/10/30 08:16:10;;;;;;;1.57;1.10;;;12.60;98.20;;;;;;5065970;28;20477;-75
2021/10/30 08:18:43;;;;;;;1.60;1.20;;;12.60;98.20;;;;;;5078179;28;20469;-73
2021/10/30 08:21:12;;;;;;;1.50;1.00;;;12.60;98.20;;;;;;5076321;28;20468;-72
2021/10/30 08:23:39;;;;;;;1.60;1.10;;;12.60;98.20;;;;;;5070944;28;20458;-74
2021/10/30 08:26:07;;;;;;;2.90;2.70;;;12.60;98.20;;;;;;5061013;28;20910;-73
2021/10/30 08:28:35;;;;;;;1.50;1.00;;;12.50;98.20;;;;;;5058946;28;20959;-74
2021/10/30 08:31:04;;;;;;;1.60;1.13;;;12.50;98.20;;;;;;5062508;28;20476;-73
2021/10/30 08:33:31;;;;;;;1.60;1.00;;;12.50;98.20;;;;;;5065431;28;20472;-73
2021/10/30 08:35:59;;;;;;;1.50;1.00;;;12.50;98.20;;;;;;5062300;28;20482;-74
2021/10/30 08:38:26;;;;;;;1.60;1.30;;;12.50;98.20;;;;;;5072820;28;20465;-73
2021/10/30 08:40:56;;;;;;;1.60;1.10;;;12.50;98.20;;;;;;5062232;28;20510;-73
2021/10/30 08:43:26;;;;;;;1.60;1.10;;;12.50;98.20;;;;;;5073211;28;20466;-73
2021/10/30 08:45:54;;;;;;;1.50;1.00;;;12.50;98.20;;;;;;5066104;28;20534;-73
2021/10/30 08:48:24;;;;;;;1.60;1.10;;;12.50;98.20;;;;;;5072229;28;21034;-73
2021/10/30 08:50:52;;;;;;;1.60;1.10;;;12.60;98.20;;;;;;5077539;28;20460;-73
2021/10/30 08:53:20;;;;;;;1.57;1.17;;;12.60;98.20;;;;;;5060708;28;20605;-73
2021/10/30 08:55:47;;;;;;;1.57;1.10;;;12.60;98.20;;;;;;5061601;28;20489;-73
2021/10/30 08:58:15;;;;;;;1.57;1.00;;;12.60;98.20;;;;;;5047332;28;20589;-73
2021/10/30 09:00:44;;;;;;;1.53;1.10;;;12.70;98.20;;;;;;5049688;28;20469;-74
2021/10/30 09:03:12;;;;;;;1.50;1.00;;;12.70;98.20;;;;;;5043709;28;20527;-74
2021/10/30 09:05:42;;;;;;;1.57;1.10;;;12.70;98.20;;;;;;5043976;28;20565;-74
2021/10/30 09:08:09;;;;;;;1.60;1.00;;;12.80;98.20;;;;;;5044604;28;20562;-74
2021/10/30 09:10:39;;;;;;;1.70;1.60;;;12.80;98.20;;;;;;5045219;28;20466;-75
2021/10/30 09:13:08;;;;;;;1.50;1.00;;;12.80;98.20;;;;;;5044298;28;20752;-76
2021/10/30 09:15:38;;;;;;;1.53;1.10;;;12.90;98.20;;;;;;5045059;28;20585;-76
2021/10/30 09:18:20;;;;;;;1.60;1.10;;;12.90;98.20;;;;;;5044795;22;20905;-74
2021/10/30 09:20:49;;;;;;;1.60;1.10;;;12.90;98.20;;;;;;5023038;28;20498;-74
2021/10/30 09:23:16;;;;;;;1.53;1.00;;;12.90;98.20;;;;;;5025645;28;20462;-75
2021/10/30 09:25:55;;;;;;;1.57;1.10;;;12.90;98.20;;;;;;5025724;28;20470;-74
2021/10/30 09:28:23;;;;;;;1.57;1.03;;;12.90;98.20;;;;;;5009269;28;20514;-75
2021/10/30 09:31:00;;;;;;;1.50;1.00;;;12.90;98.20;;;;;;5006856;28;20468;-75
2021/10/30 09:33:29;;;;;;;1.53;1.00;;;12.90;98.20;;;;;;5005793;28;20470;-75
2021/10/30 09:35:58;;;;;;;1.53;1.00;;;12.90;98.20;;;;;;5006742;28;20651;-75
2021/10/30 09:38:32;;;;;;;1.57;1.10;;;13.00;98.20;;;;;;5002997;28;20498;-75
2021/10/30 09:41:01;;;;;;;1.53;1.10;;;13.00;98.20;;;;;;5005165;28;20546;-75
2021/10/30 09:43:28;;;;;;;1.60;1.17;;;13.00;98.20;;;;;;5003515;28;20834;-74
2021/10/30 09:45:56;;;;;;;1.53;1.03;;;13.00;98.20;;;;;;5000810;28;20759;-74
2021/10/30 09:48:26;;;;;;;1.50;1.00;;;13.00;98.20;;;;;;5004569;28;20488;-74
2021/10/30 09:50:55;;;;;;;1.50;1.00;;;12.90;98.20;;;;;;5003978;28;20635;-74
2021/10/30 09:53:30;;;;;;;1.57;1.00;;;12.90;98.20;;;;;;5004195;28;20504;-73
2021/10/30 09:55:59;;;;;;;1.50;1.00;;;12.90;98.20;;;;;;5004700;28;20949;-74
2021/10/30 09:58:31;;;;;;;1.53;1.10;;;12.90;98.20;;;;;;5004718;28;20487;-73
2021/10/30 10:01:01;;;;;;;1.60;1.20;;;12.80;98.20;;;;;;5004983;28;20475;-73
2021/10/30 10:03:30;;;;;;;1.57;1.07;;;12.80;98.20;;;;;;5006664;28;20468;-73
2021/10/30 10:05:59;;;;;;;1.50;1.00;;;12.80;98.20;;;;;;5006199;28;20475;-74
2021/10/30 10:08:28;;;;;;;1.57;1.10;;;12.80;98.20;;;;;;5004831;28;20501;-73
2021/10/30 10:10:56;;;;;;;1.53;1.00;;;12.80;98.20;;;;;;5006575;28;20464;-75
2021/10/30 10:13:24;;;;;;;1.50;1.00;;;12.80;98.20;;;;;;4997468;28;20468;-74
2021/10/30 10:15:51;;;;;;;1.53;1.00;;;12.80;98.20;;;;;;5005228;28;20475;-74
2021/10/30 10:18:18;;;;;;;1.53;1.10;;;12.90;98.20;;;;;;5004119;28;20492;-74
2021/10/30 10:20:46;;;;;;;1.50;1.00;;;12.90;98.20;;;;;;5000629;28;20472;-73
2021/10/30 10:23:14;;;;;;;1.57;1.10;;;12.90;98.20;;;;;;5004508;28;20464;-74
2021/10/30 10:25:49;;;;;;;1.50;1.10;;;12.90;98.20;;;;;;5004361;28;21059;-73
2021/10/30 10:28:24;;;;;;;1.60;1.20;;;12.90;98.20;;;;;;5002086;28;20538;-74
2021/10/30 10:31:11;;;;;;;1.50;1.00;;;12.90;98.20;;;;;;5005707;28;20566;-74
2021/10/30 10:33:40;;;;;;;1.57;1.10;;;12.90;98.20;;;;;;5005595;28;20464;-72
2021/10/30 10:36:24;;;;;;;1.50;1.00;;;12.90;98.20;;;;;;5005980;28;20474;-74
2021/10/30 10:39:25;;;;;;;1.70;1.20;;;12.90;98.20;;;;;;5003293;28;20819;-73
2021/10/30 10:42:05;;;;;;;1.50;1.00;;;12.90;98.20;;;;;;4998730;28;20476;-73
2021/10/30 10:44:59;;;;;;;1.53;1.10;;;12.90;98.20;;;;;;4999339;28;20465;-73
2021/10/30 10:48:06;;;;;;;1.53;1.00;;;12.90;98.20;;;;;;4998343;28;20492;-74
2021/10/30 10:50:40;;;;;;;1.53;1.07;;;12.90;98.20;;;;;;4998601;28;20494;-74
2021/10/30 10:53:26;;;;;;;1.53;1.00;;;12.90;98.20;;;;;;4999517;28;20474;-74
2021/10/30 10:56:20;;;;;;;1.50;1.00;;;12.90;98.20;;;;;;4997428;28;20468;-74
2021/10/30 10:59:18;;;;;;;1.53;1.00;;;12.80;98.20;;;;;;5002582;28;20480;-73
2021/10/30 11:02:21;;;;;;;1.50;1.00;;;12.80;98.20;;;;;;5002556;28;20460;-73
2021/10/30 11:05:26;;;;;;;1.50;1.00;;;12.80;98.20;;;;;;5001164;28;20463;-73
2021/10/30 11:08:24;;;;;;;1.50;1.00;;;12.80;98.20;;;;;;5000781;28;20483;-74
2021/10/30 11:11:09;;;;;;;1.50;1.00;;;12.80;98.20;;;;;;4999122;28;20503;-74
2021/10/30 11:13:36;;;;;;;1.57;1.00;;;12.80;98.20;;;;;;5002491;28;20563;-74
2021/10/30 11:16:05;;;;;;;1.60;1.10;;;12.80;98.20;;;;;;4997915;28;20472;-73
2021/10/30 11:18:35;;;;;;;1.50;1.00;;;12.80;98.20;;;;;;5002148;28;20879;-72
2021/10/30 11:21:15;;;;;;;1.50;1.00;;;12.80;98.20;;;;;;5004830;28;20479;-74
2021/10/30 11:23:44;;;;;;;1.50;1.00;;;12.80;98.20;;;;;;5005056;28;20598;-74
2021/10/30 11:26:12;;;;;;;1.60;1.10;;;12.80;98.20;;;;;;5002959;28;20469;-76
2021/10/30 11:28:39;;;;;;;1.57;1.10;;;12.80;98.20;;;;;;5004543;28;20495;-74
2021/10/30 11:31:13;;;;;;;1.50;1.00;;;12.80;98.20;;;;;;5003534;28;20468;-73
2021/10/30 11:33:40;;;;;;;1.53;1.10;;;12.80;98.20;;;;;;5003416;28;20468;-72
2021/10/30 11:36:08;;;;;;;1.60;1.10;;;12.80;98.20;;;;;;5004865;28;20472;-73
2021/10/30 11:38:37;;;;;;;1.50;1.00;;;12.80;98.20;;;;;;4993534;28;20495;-74
2021/10/30 11:41:06;;;;;;;1.53;1.00;;;12.80;98.20;;;;;;4997649;28;20464;-72
2021/10/30 11:43:36;;;;;;;1.53;1.00;;;12.80;98.20;;;;;;5001288;28;20475;-73
2021/10/30 11:46:05;;;;;;;1.50;1.00;;;12.80;98.20;;;;;;4997619;28;20504;-72
2021/10/30 11:48:38;;;;;;;1.53;1.00;;;12.80;98.20;;;;;;4995786;28;20535;-71
2021/10/30 11:51:06;;;;;;;1.50;1.00;;;12.80;98.20;;;;;;5001118;28;20511;-73
2021/10/30 11:53:34;;;;;;;1.57;1.07;;;12.90;98.20;;;;;;5003685;28;20476;-73
2021/10/30 11:56:08;;;;;;;1.53;1.00;;;12.90;98.20;;;;;;5003740;28;20476;-74
2021/10/30 11:58:40;;;;;;;1.53;1.10;;;12.90;98.20;;;;;;5002046;28;20476;-73
2021/10/30 12:01:20;;;;;;;13.20;3.53;;;13.00;98.20;;;;;;5000391;28;20447;-72
2021/10/30 12:03:49;;;;;;;1.50;1.00;;;13.00;98.20;;;;;;5000627;28;20467;-74
2021/10/30 12:06:17;;;;;;;1.53;1.10;;;13.10;98.20;;;;;;5000891;28;20480;-73
2021/10/30 12:08:43;;;;;;;1.50;1.10;;;13.10;98.20;;;;;;5001539;28;20487;-73
2021/10/30 12:11:10;;;;;;;1.53;1.03;;;13.10;98.20;;;;;;5000645;28;21037;-72
2021/10/30 12:13:38;;;;;;;1.50;1.00;;;13.10;98.20;;;;;;4997742;28;20460;-74
2021/10/30 12:16:06;;;;;;;3.53;3.33;;;13.20;98.20;;;;;;5002911;28;20468;-73
2021/10/30 12:18:33;;;;;;;1.50;1.10;;;13.20;98.20;;;;;;5003304;28;21031;-73
2021/10/30 12:21:01;;;;;;;1.60;1.10;;;13.20;98.20;;;;;;5002192;28;20841;-74
2021/10/30 12:23:28;;;;;;;1.57;1.10;;;13.30;98.20;;;;;;5001530;28;20463;-74
2021/10/30 12:26:02;;;;;;;1.50;1.00;;;13.30;98.20;;;;;;5001443;28;20464;-73
2021/10/30 12:28:35;;;;;;;1.53;1.00;;;13.30;98.20;;;;;;5002462;28;20533;-73
2021/10/30 12:31:02;;;;;;;1.53;1.00;;;13.30;98.20;;;;;;5004280;28;20519;-74
2021/10/30 12:33:34;;;;;;;1.50;1.00;;;13.30;98.20;;;;;;5002868;28;20463;-73
2021/10/30 12:36:02;;;;;;;1.53;1.10;;;13.30;98.20;;;;;;5003070;28;20555;-76
2021/10/30 12:38:29;;;;;;;1.60;1.10;;;13.30;98.20;;;;;;5001927;28;20488;-73
2021/10/30 12:40:57;;;;;;;1.60;1.10;;;13.40;98.20;;;;;;5003423;28;20456;-73
2021/10/30 12:43:27;;;;;;;1.53;1.03;;;13.40;98.20;;;;;;5002860;28;20935;-73
2021/10/30 12:45:56;;;;;;;1.57;1.10;;;13.40;98.20;;;;;;5002668;28;20522;-73
2021/10/30 12:48:25;;;;;;;1.57;1.10;;;13.40;98.20;;;;;;4996402;28;20590;-73
2021/10/30 12:50:58;;;;;;;1.57;1.00;;;13.40;98.20;;;;;;5002791;28;20483;-73
2021/10/30 12:53:31;;;;;;;1.50;1.00;;;13.40;98.20;;;;;;5004661;28;20475;-73
2021/10/30 12:56:03;;;;;;;1.57;1.07;;;13.40;98.20;;;;;;5005140;28;20468;-73
2021/10/30 12:58:42;;;;;;;1.60;1.10;;;13.50;98.20;;;;;;5004957;28;20484;-73